sensor_id;sensor_type;location;lat;lon;timestamp;pressure;altitude;pressure_sealevel;temperature;humidity
68489;BME280;55481;48.764;8.936;2023-01-25T00:00:19;98510;;;1.3;83.5
68489;BME280;55481;48.764;8.936;2023-01-25T00:02:49;98510;;;1.2;84
68489;BME280;55481;48.764;8.936;2023-01-25T00:05:27;98510;;;1.3;84
68489;BME280;55481;48.764;8.936;2023-01-25T00:07:59;98510;;;1.2;83.5
68489;BME280;55481;48.764;8.936;2023-01-25T00:15:30;98500;;;1.2;84
68489;BME280;55481;48.764;8.936;2023-01-25T00:18:02;98500;;;1.2;84
68489;BME280;55481;48.764;8.936;2023-01-25T00:20:31;98490;;;1.2;84
68489;BME280;55481;48.764;8.936;2023-01-25T00:23:01;98490;;;1.3;83.5
68489;BME280;55481;48.764;8.936;2023-01-25T00:27:55;98480;;;1.2;83.5
68489;BME280;55481;48.764;8.936;2023-01-25T00:30:26;98480;;;1.2;83.5
68489;BME280;55481;48.764;8.936;2023-01-25T00:33:06;98480;;;1.3;83.5
68489;BME280;55481;48.764;8.936;2023-01-25T00:35:35;98480;;;1.3;83.5
68489;BME280;55481;48.764;8.936;2023-01-25T00:43:09;98480;;;1.2;83.5
68489;BME280;55481;48.764;8.936;2023-01-25T00:45:39;98480;;;1.2;83.5
68489;BME280;55481;48.764;8.936;2023-01-25T00:50:31;98480;;;1.2;84
68489;BME280;55481;48.764;8.936;2023-01-25T00:53:02;98480;;;1.2;84
68489;BME280;55481;48.764;8.936;2023-01-25T00:55:33;98480;;;1.2;83.5
68489;BME280;55481;48.764;8.936;2023-01-25T01:02:59;98470;;;1.2;84
68489;BME280;55481;48.764;8.936;2023-01-25T01:08:01;98460;;;1.2;84
68489;BME280;55481;48.764;8.936;2023-01-25T01:10:31;98460;;;1.2;83.5
68489;BME280;55481;48.764;8.936;2023-01-25T01:13:02;98460;;;1.2;84
68489;BME280;55481;48.764;8.936;2023-01-25T01:18:10;98460;;;1.2;83.5
68489;BME280;55481;48.764;8.936;2023-01-25T01:20:46;98460;;;1.3;84
68489;BME280;55481;48.764;8.936;2023-01-25T01:23:11;98470;;;1.4;83.5
68489;BME280;55481;48.764;8.936;2023-01-25T01:25:44;98460;;;1.3;83.5
68489;BME280;55481;48.764;8.936;2023-01-25T01:28:14;98460;;;1.3;83.5
68489;BME280;55481;48.764;8.936;2023-01-25T01:30:51;98460;;;1.3;84
68489;BME280;55481;48.764;8.936;2023-01-25T01:33:28;98460;;;1.3;83.5
68489;BME280;55481;48.764;8.936;2023-01-25T01:36:06;98460;;;1.3;84
68489;BME280;55481;48.764;8.936;2023-01-25T01:38:22;98460;;;1.3;83.5
68489;BME280;55481;48.764;8.936;2023-01-25T01:43:18;98460;;;1.2;83.5
68489;BME280;55481;48.764;8.936;2023-01-25T01:45:52;98460;;;1.2;83.5
68489;BME280;55481;48.764;8.936;2023-01-25T01:48:20;98460;;;1.2;84
68489;BME280;55481;48.764;8.936;2023-01-25T01:55:44;98460;;;1.2;84
68489;BME280;55481;48.764;8.936;2023-01-25T01:58:14;98460;;;1.3;84
68489;BME280;55481;48.764;8.936;2023-01-25T02:00:45;98470;;;1.3;84
68489;BME280;55481;48.764;8.936;2023-01-25T02:03:16;98470;;;1.3;84
68489;BME280;55481;48.764;8.936;2023-01-25T02:05:50;98460;;;1.3;84
68489;BME280;55481;48.764;8.936;2023-01-25T02:08:17;98460;;;1.2;83.5
68489;BME280;55481;48.764;8.936;2023-01-25T02:10:48;98460;;;1.2;84
68489;BME280;55481;48.764;8.936;2023-01-25T02:13:19;98460;;;1.2;84
68489;BME280;55481;48.764;8.936;2023-01-25T02:26:00;98460;;;1.2;84
68489;BME280;55481;48.764;8.936;2023-01-25T02:28:38;98450;;;1.2;84
68489;BME280;55481;48.764;8.936;2023-01-25T02:31:01;98450;;;1.3;84
68489;BME280;55481;48.764;8.936;2023-01-25T02:33:34;98450;;;1.3;83.5
68489;BME280;55481;48.764;8.936;2023-01-25T02:36:15;98440;;;1.2;83.5
68489;BME280;55481;48.764;8.936;2023-01-25T02:38:34;98440;;;1.2;83.5
68489;BME280;55481;48.764;8.936;2023-01-25T02:41:14;98440;;;1.2;83.5
68489;BME280;55481;48.764;8.936;2023-01-25T02:51:01;98440;;;1.1;84
68489;BME280;55481;48.764;8.936;2023-01-25T02:53:31;98440;;;1.1;84
68489;BME280;55481;48.764;8.936;2023-01-25T02:56:02;98440;;;1.1;84
68489;BME280;55481;48.764;8.936;2023-01-25T03:01:10;98440;;;1.1;83.5
68489;BME280;55481;48.764;8.936;2023-01-25T03:03:40;98430;;;1.1;84
68489;BME280;55481;48.764;8.936;2023-01-25T03:08:35;98420;;;1.2;84
68489;BME280;55481;48.764;8.936;2023-01-25T03:11:07;98420;;;1.1;84
68489;BME280;55481;48.764;8.936;2023-01-25T03:18:39;98410;;;1.2;83.5
68489;BME280;55481;48.764;8.936;2023-01-25T03:21:10;98410;;;1.1;83.5
68489;BME280;55481;48.764;8.936;2023-01-25T03:26:12;98400;;;1.1;83.5
68489;BME280;55481;48.764;8.936;2023-01-25T03:28:42;98400;;;1.1;83.5
68489;BME280;55481;48.764;8.936;2023-01-25T03:33:50;98400;;;1.1;83.5
68489;BME280;55481;48.764;8.936;2023-01-25T03:36:20;98400;;;1.1;83.5
68489;BME280;55481;48.764;8.936;2023-01-25T03:38:51;98390;;;1.1;84
68489;BME280;55481;48.764;8.936;2023-01-25T03:48:48;98400;;;1.3;83.5
68489;BME280;55481;48.764;8.936;2023-01-25T03:51:18;98400;;;1.3;83.5
68489;BME280;55481;48.764;8.936;2023-01-25T03:53:49;98400;;;1.1;83.5
68489;BME280;55481;48.764;8.936;2023-01-25T03:56:20;98400;;;1.1;84
68489;BME280;55481;48.764;8.936;2023-01-25T03:58:51;98390;;;1.2;83.5
68489;BME280;55481;48.764;8.936;2023-01-25T04:01:21;98400;;;1.1;83.5
68489;BME280;55481;48.764;8.936;2023-01-25T04:04:00;98400;;;1.1;83.5
68489;BME280;55481;48.764;8.936;2023-01-25T04:06:29;98390;;;1;84
68489;BME280;55481;48.764;8.936;2023-01-25T04:09:02;98390;;;1;84
68489;BME280;55481;48.764;8.936;2023-01-25T04:11:31;98390;;;1;84
68489;BME280;55481;48.764;8.936;2023-01-25T04:14:09;98390;;;1;84
68489;BME280;55481;48.764;8.936;2023-01-25T04:16:40;98390;;;1;84
68489;BME280;55481;48.764;8.936;2023-01-25T04:21:37;98390;;;0.9;84
68489;BME280;55481;48.764;8.936;2023-01-25T04:24:11;98390;;;0.9;84
68489;BME280;55481;48.764;8.936;2023-01-25T04:29:18;98390;;;1;84
68489;BME280;55481;48.764;8.936;2023-01-25T04:31:45;98380;;;1;84
68489;BME280;55481;48.764;8.936;2023-01-25T04:34:15;98380;;;1;84
68489;BME280;55481;48.764;8.936;2023-01-25T04:36:45;98380;;;1;84
68489;BME280;55481;48.764;8.936;2023-01-25T04:39:09;98380;;;1;84
68489;BME280;55481;48.764;8.936;2023-01-25T04:41:40;98380;;;1;84
68489;BME280;55481;48.764;8.936;2023-01-25T04:44:17;98380;;;1;84
68489;BME280;55481;48.764;8.936;2023-01-25T04:51:51;98380;;;1;84
68489;BME280;55481;48.764;8.936;2023-01-25T04:54:21;98380;;;1;84
68489;BME280;55481;48.764;8.936;2023-01-25T04:56:51;98380;;;1;84
68489;BME280;55481;48.764;8.936;2023-01-25T05:01:45;98370;;;1.1;84
68489;BME280;55481;48.764;8.936;2023-01-25T05:04:16;98370;;;1.1;84
68489;BME280;55481;48.764;8.936;2023-01-25T05:06:47;98370;;;1.1;84
68489;BME280;55481;48.764;8.936;2023-01-25T05:11:42;98360;;;1.1;84
68489;BME280;55481;48.764;8.936;2023-01-25T05:14:12;98360;;;1.1;84
68489;BME280;55481;48.764;8.936;2023-01-25T05:19:14;98360;;;1.1;84
68489;BME280;55481;48.764;8.936;2023-01-25T05:24:15;98360;;;1.2;84
68489;BME280;55481;48.764;8.936;2023-01-25T05:26:45;98360;;;1.2;84
68489;BME280;55481;48.764;8.936;2023-01-25T05:29:16;98360;;;1.1;83.5
68489;BME280;55481;48.764;8.936;2023-01-25T05:39:25;98360;;;1.1;84
68489;BME280;55481;48.764;8.936;2023-01-25T05:41:56;98360;;;1.1;84
68489;BME280;55481;48.764;8.936;2023-01-25T05:44:30;98360;;;1.1;84
68489;BME280;55481;48.764;8.936;2023-01-25T05:49:34;98360;;;1.2;84
68489;BME280;55481;48.764;8.936;2023-01-25T05:56:54;98360;;;1.1;84
68489;BME280;55481;48.764;8.936;2023-01-25T05:59:27;98350;;;1.1;83.5
68489;BME280;55481;48.764;8.936;2023-01-25T06:01:55;98350;;;1.2;84
68489;BME280;55481;48.764;8.936;2023-01-25T06:04:26;98350;;;1.2;83.5
68489;BME280;55481;48.764;8.936;2023-01-25T06:07:04;98350;;;1.2;84
68489;BME280;55481;48.764;8.936;2023-01-25T06:09:34;98350;;;1.2;83.5
68489;BME280;55481;48.764;8.936;2023-01-25T06:12:05;98350;;;1.2;83.5
68489;BME280;55481;48.764;8.936;2023-01-25T06:14:29;98340;;;1.2;83.5
68489;BME280;55481;48.764;8.936;2023-01-25T06:17:00;98340;;;1.3;83.5
68489;BME280;55481;48.764;8.936;2023-01-25T06:19:31;98340;;;1.2;83.5
68489;BME280;55481;48.764;8.936;2023-01-25T06:29:34;98340;;;1.2;84
68489;BME280;55481;48.764;8.936;2023-01-25T06:32:05;98340;;;1.2;84
68489;BME280;55481;48.764;8.936;2023-01-25T06:34:49;98340;;;1.2;84
68489;BME280;55481;48.764;8.936;2023-01-25T06:37:19;98340;;;1.2;84
68489;BME280;55481;48.764;8.936;2023-01-25T06:42:13;98340;;;1.2;84
68489;BME280;55481;48.764;8.936;2023-01-25T06:44:43;98340;;;1.3;84
68489;BME280;55481;48.764;8.936;2023-01-25T06:47:16;98330;;;1.2;84
68489;BME280;55481;48.764;8.936;2023-01-25T06:49:46;98320;;;1.2;84
68489;BME280;55481;48.764;8.936;2023-01-25T06:52:23;98320;;;1.2;84
68489;BME280;55481;48.764;8.936;2023-01-25T06:55:00;98320;;;1.2;84
68489;BME280;55481;48.764;8.936;2023-01-25T06:59:50;98330;;;1.2;84
68489;BME280;55481;48.764;8.936;2023-01-25T07:02:18;98320;;;1.3;84
68489;BME280;55481;48.764;8.936;2023-01-25T07:04:50;98320;;;1.3;84
68489;BME280;55481;48.764;8.936;2023-01-25T07:07:20;98320;;;1.2;84
68489;BME280;55481;48.764;8.936;2023-01-25T07:09:51;98320;;;1.2;84
68489;BME280;55481;48.764;8.936;2023-01-25T07:12:22;98310;;;1.2;84
68489;BME280;55481;48.764;8.936;2023-01-25T07:14:53;98310;;;1.2;84
68489;BME280;55481;48.764;8.936;2023-01-25T07:17:24;98310;;;1.2;84
68489;BME280;55481;48.764;8.936;2023-01-25T07:20:02;98310;;;1.2;84
68489;BME280;55481;48.764;8.936;2023-01-25T07:27:34;98310;;;1.3;83.5
68489;BME280;55481;48.764;8.936;2023-01-25T07:32:34;98310;;;1.3;84
68489;BME280;55481;48.764;8.936;2023-01-25T07:35:05;98310;;;1.2;84
68489;BME280;55481;48.764;8.936;2023-01-25T07:37:36;98310;;;1.2;84
68489;BME280;55481;48.764;8.936;2023-01-25T07:40:05;98310;;;1.2;84
68489;BME280;55481;48.764;8.936;2023-01-25T07:42:34;98300;;;1.3;84
68489;BME280;55481;48.764;8.936;2023-01-25T07:45:18;98300;;;1.3;84
68489;BME280;55481;48.764;8.936;2023-01-25T07:47:48;98300;;;1.4;84
68489;BME280;55481;48.764;8.936;2023-01-25T07:50:07;98290;;;1.4;84
68489;BME280;55481;48.764;8.936;2023-01-25T07:52:36;98300;;;1.4;83.5
68489;BME280;55481;48.764;8.936;2023-01-25T07:55:06;98300;;;1.4;84
68489;BME280;55481;48.764;8.936;2023-01-25T07:57:30;98290;;;1.4;84
68489;BME280;55481;48.764;8.936;2023-01-25T08:00:00;98290;;;1.4;84
68489;BME280;55481;48.764;8.936;2023-01-25T08:02:31;98290;;;1.4;84
68489;BME280;55481;48.764;8.936;2023-01-25T08:05:09;98300;;;1.4;84
68489;BME280;55481;48.764;8.936;2023-01-25T08:07:40;98300;;;1.5;84
68489;BME280;55481;48.764;8.936;2023-01-25T08:10:17;98300;;;1.5;84
68489;BME280;55481;48.764;8.936;2023-01-25T08:15:11;98300;;;1.4;84
68489;BME280;55481;48.764;8.936;2023-01-25T08:17:35;98300;;;1.4;84
68489;BME280;55481;48.764;8.936;2023-01-25T08:20:07;98300;;;1.4;84
68489;BME280;55481;48.764;8.936;2023-01-25T08:22:30;98310;;;1.4;84
68489;BME280;55481;48.764;8.936;2023-01-25T08:25:01;98310;;;1.4;84
68489;BME280;55481;48.764;8.936;2023-01-25T08:27:32;98300;;;1.4;84
68489;BME280;55481;48.764;8.936;2023-01-25T08:35:04;98300;;;1.5;84
68489;BME280;55481;48.764;8.936;2023-01-25T08:37:36;98300;;;1.6;83.5
68489;BME280;55481;48.764;8.936;2023-01-25T08:42:42;98300;;;1.4;83.5
68489;BME280;55481;48.764;8.936;2023-01-25T08:45:20;98300;;;1.4;83.5
68489;BME280;55481;48.764;8.936;2023-01-25T08:47:44;98290;;;1.4;84
68489;BME280;55481;48.764;8.936;2023-01-25T08:52:38;98290;;;1.5;84
68489;BME280;55481;48.764;8.936;2023-01-25T08:55:09;98280;;;1.5;83.5
68489;BME280;55481;48.764;8.936;2023-01-25T09:02:42;98270;;;1.4;84
68489;BME280;55481;48.764;8.936;2023-01-25T09:05:15;98270;;;1.5;84
68489;BME280;55481;48.764;8.936;2023-01-25T09:07:43;98280;;;1.5;83.5
68489;BME280;55481;48.764;8.936;2023-01-25T09:10:15;98270;;;1.4;84
68489;BME280;55481;48.764;8.936;2023-01-25T09:12:45;98270;;;1.5;84
68489;BME280;55481;48.764;8.936;2023-01-25T09:20:30;98270;;;1.5;84
68489;BME280;55481;48.764;8.936;2023-01-25T09:25:43;98270;;;1.5;83.5
68489;BME280;55481;48.764;8.936;2023-01-25T09:28:01;98260;;;1.4;84
68489;BME280;55481;48.764;8.936;2023-01-25T09:33:01;98260;;;1.5;84
68489;BME280;55481;48.764;8.936;2023-01-25T09:37:54;98260;;;1.5;84
68489;BME280;55481;48.764;8.936;2023-01-25T09:40:25;98260;;;1.4;84
68489;BME280;55481;48.764;8.936;2023-01-25T09:42:57;98260;;;1.4;84
68489;BME280;55481;48.764;8.936;2023-01-25T09:45:35;98260;;;1.4;84
68489;BME280;55481;48.764;8.936;2023-01-25T09:53:32;98270;;;1.3;83.5
68489;BME280;55481;48.764;8.936;2023-01-25T09:55:31;98270;;;1.4;84
68489;BME280;55481;48.764;8.936;2023-01-25T10:00:30;98270;;;1.4;84
68489;BME280;55481;48.764;8.936;2023-01-25T10:03:00;98270;;;1.5;84
68489;BME280;55481;48.764;8.936;2023-01-25T10:05:29;98270;;;1.6;83.5
68489;BME280;55481;48.764;8.936;2023-01-25T10:08:01;98260;;;1.6;83.5
68489;BME280;55481;48.764;8.936;2023-01-25T10:10:33;98260;;;1.6;83.5
68489;BME280;55481;48.764;8.936;2023-01-25T10:13:00;98260;;;1.5;83.5
68489;BME280;55481;48.764;8.936;2023-01-25T10:15:42;98260;;;1.5;84
68489;BME280;55481;48.764;8.936;2023-01-25T10:20:48;98250;;;1.6;84
68489;BME280;55481;48.764;8.936;2023-01-25T10:25:56;98250;;;1.6;84
68489;BME280;55481;48.764;8.936;2023-01-25T10:33:20;98240;;;1.6;83.5
68489;BME280;55481;48.764;8.936;2023-01-25T10:35:49;98230;;;1.6;83.5
68489;BME280;55481;48.764;8.936;2023-01-25T10:40:45;98230;;;1.6;83.5
68489;BME280;55481;48.764;8.936;2023-01-25T10:43:17;98230;;;1.6;83.5
68489;BME280;55481;48.764;8.936;2023-01-25T10:45:46;98220;;;1.6;84
68489;BME280;55481;48.764;8.936;2023-01-25T10:48:12;98220;;;1.6;83.5
68489;BME280;55481;48.764;8.936;2023-01-25T10:55:51;98210;;;1.7;84
68489;BME280;55481;48.764;8.936;2023-01-25T10:58:27;98210;;;1.8;83.5
68489;BME280;55481;48.764;8.936;2023-01-25T11:00:49;98210;;;1.8;83.5
68489;BME280;55481;48.764;8.936;2023-01-25T11:05:52;98210;;;1.8;84
68489;BME280;55481;48.764;8.936;2023-01-25T11:08:24;98200;;;1.8;83.5
68489;BME280;55481;48.764;8.936;2023-01-25T11:10:53;98200;;;1.8;84
68489;BME280;55481;48.764;8.936;2023-01-25T11:13:19;98190;;;1.9;83.5
68489;BME280;55481;48.764;8.936;2023-01-25T11:15:49;98190;;;1.7;83.5
68489;BME280;55481;48.764;8.936;2023-01-25T11:23:22;98190;;;1.5;84
68489;BME280;55481;48.764;8.936;2023-01-25T11:25:51;98190;;;1.5;84
68489;BME280;55481;48.764;8.936;2023-01-25T11:28:22;98190;;;1.5;84
68489;BME280;55481;48.764;8.936;2023-01-25T11:30:52;98180;;;1.5;84
68489;BME280;55481;48.764;8.936;2023-01-25T11:36:13;98180;;;1.6;84
68489;BME280;55481;48.764;8.936;2023-01-25T11:38:37;98180;;;1.6;84
68489;BME280;55481;48.764;8.936;2023-01-25T11:41:19;98170;;;1.6;84
68489;BME280;55481;48.764;8.936;2023-01-25T11:43:38;98170;;;1.6;83.5
68489;BME280;55481;48.764;8.936;2023-01-25T11:48:38;98160;;;1.6;83.5
68489;BME280;55481;48.764;8.936;2023-01-25T11:51:21;98160;;;1.6;83.5
68489;BME280;55481;48.764;8.936;2023-01-25T11:53:52;98150;;;1.5;84
68489;BME280;55481;48.764;8.936;2023-01-25T11:56:29;98150;;;1.5;84
68489;BME280;55481;48.764;8.936;2023-01-25T12:01:09;98140;;;1.5;84
68489;BME280;55481;48.764;8.936;2023-01-25T12:03:43;98130;;;1.3;84
68489;BME280;55481;48.764;8.936;2023-01-25T12:07:07;98120;;;1.4;84
68489;BME280;55481;48.764;8.936;2023-01-25T12:09:38;98110;;;1.5;84
68489;BME280;55481;48.764;8.936;2023-01-25T12:11:06;98110;;;1.5;84
68489;BME280;55481;48.764;8.936;2023-01-25T12:26:11;98080;;;1.4;84
68489;BME280;55481;48.764;8.936;2023-01-25T12:28:40;98070;;;1.3;84
68489;BME280;55481;48.764;8.936;2023-01-25T12:31:13;98060;;;1.3;84
68489;BME280;55481;48.764;8.936;2023-01-25T12:33:56;98060;;;1.4;84
68489;BME280;55481;48.764;8.936;2023-01-25T12:36:13;98060;;;1.4;84
68489;BME280;55481;48.764;8.936;2023-01-25T12:39:03;98050;;;1.5;84
68489;BME280;55481;48.764;8.936;2023-01-25T12:41:40;98050;;;1.4;84
68489;BME280;55481;48.764;8.936;2023-01-25T12:44:02;98050;;;1.5;83.5
68489;BME280;55481;48.764;8.936;2023-01-25T12:46:27;98050;;;1.5;83.5
68489;BME280;55481;48.764;8.936;2023-01-25T12:51:21;98040;;;1.4;84
68489;BME280;55481;48.764;8.936;2023-01-25T12:53:53;98040;;;1.4;84
68489;BME280;55481;48.764;8.936;2023-01-25T12:56:32;98030;;;1.4;84
68489;BME280;55481;48.764;8.936;2023-01-25T12:59:02;98030;;;1.2;84
68489;BME280;55481;48.764;8.936;2023-01-25T13:04:03;98020;;;1.3;84
68489;BME280;55481;48.764;8.936;2023-01-25T13:06:27;98020;;;1.3;84
68489;BME280;55481;48.764;8.936;2023-01-25T13:08:57;98000;;;1.3;84
68489;BME280;55481;48.764;8.936;2023-01-25T13:15:37;98000;;;1.9;84
68489;BME280;55481;48.764;8.936;2023-01-25T13:25:05;97990;;;1.3;84
68489;BME280;55481;48.764;8.936;2023-01-25T13:27:29;97990;;;1.4;84
68489;BME280;55481;48.764;8.936;2023-01-25T13:30:00;97990;;;1.3;84
68489;BME280;55481;48.764;8.936;2023-01-25T13:32:58;97990;;;1.3;84
68489;BME280;55481;48.764;8.936;2023-01-25T13:35:00;97980;;;1.3;84
68489;BME280;55481;48.764;8.936;2023-01-25T13:37:37;97980;;;1.2;84
68489;BME280;55481;48.764;8.936;2023-01-25T13:40:39;97980;;;1.1;84.5
68489;BME280;55481;48.764;8.936;2023-01-25T13:42:39;97960;;;1.2;84.5
68489;BME280;55481;48.764;8.936;2023-01-25T13:45:23;97970;;;1;84.5
68489;BME280;55481;48.764;8.936;2023-01-25T13:47:42;97960;;;1.1;84.5
68489;BME280;55481;48.764;8.936;2023-01-25T13:50:21;97960;;;1.2;84.5
68489;BME280;55481;48.764;8.936;2023-01-25T13:57:51;97950;;;1.3;83.5
68489;BME280;55481;48.764;8.936;2023-01-25T14:00:21;97950;;;1.1;83.5
68489;BME280;55481;48.764;8.936;2023-01-25T14:05:19;97950;;;1.1;84.5
68489;BME280;55481;48.764;8.936;2023-01-25T14:07:54;97950;;;1.2;84
68489;BME280;55481;48.764;8.936;2023-01-25T14:12:49;97940;;;1;84.5
68489;BME280;55481;48.764;8.936;2023-01-25T14:18:08;97950;;;0.9;84.5
68489;BME280;55481;48.764;8.936;2023-01-25T14:20:26;97950;;;0.9;84.5
68489;BME280;55481;48.764;8.936;2023-01-25T14:22:57;97950;;;0.9;84.5
68489;BME280;55481;48.764;8.936;2023-01-25T14:27:52;97940;;;1.1;84.5
68489;BME280;55481;48.764;8.936;2023-01-25T14:30:22;97940;;;1;84
68489;BME280;55481;48.764;8.936;2023-01-25T14:32:54;97940;;;0.9;84
68489;BME280;55481;48.764;8.936;2023-01-25T14:35:31;97940;;;0.9;84
68489;BME280;55481;48.764;8.936;2023-01-25T14:38:40;97940;;;1;84.5
68489;BME280;55481;48.764;8.936;2023-01-25T14:40:38;97940;;;1;84.5
68489;BME280;55481;48.764;8.936;2023-01-25T14:45:25;97940;;;0.7;84.5
68489;BME280;55481;48.764;8.936;2023-01-25T14:47:56;97940;;;0.9;85
68489;BME280;55481;48.764;8.936;2023-01-25T14:53:18;97930;;;1;84.5
68489;BME280;55481;48.764;8.936;2023-01-25T14:55:22;97930;;;1;84
68489;BME280;55481;48.764;8.936;2023-01-25T14:57:56;97920;;;1;84.5
68489;BME280;55481;48.764;8.936;2023-01-25T15:05:29;97910;;;1.1;84
68489;BME280;55481;48.764;8.936;2023-01-25T15:07:57;97920;;;1.1;84
68489;BME280;55481;48.764;8.936;2023-01-25T15:10:28;97910;;;1.1;84
68489;BME280;55481;48.764;8.936;2023-01-25T15:15:34;97910;;;1;84.5
68489;BME280;55481;48.764;8.936;2023-01-25T15:18:05;97910;;;1;84.5
68489;BME280;55481;48.764;8.936;2023-01-25T15:20:37;97900;;;1;84.5
68489;BME280;55481;48.764;8.936;2023-01-25T15:25:31;97900;;;1;84.5
68489;BME280;55481;48.764;8.936;2023-01-25T15:33:03;97890;;;0.9;84.5
68489;BME280;55481;48.764;8.936;2023-01-25T15:35:42;97890;;;0.8;84.5
68489;BME280;55481;48.764;8.936;2023-01-25T15:38:07;97880;;;0.9;84.5
68489;BME280;55481;48.764;8.936;2023-01-25T15:40:36;97880;;;1;84
68489;BME280;55481;48.764;8.936;2023-01-25T15:43:10;97880;;;0.8;84
68489;BME280;55481;48.764;8.936;2023-01-25T15:45:46;97870;;;0.8;84
68489;BME280;55481;48.764;8.936;2023-01-25T15:48:16;97860;;;0.8;84
68489;BME280;55481;48.764;8.936;2023-01-25T15:50:46;97860;;;0.7;84.5
68489;BME280;55481;48.764;8.936;2023-01-25T15:53:17;97850;;;0.9;84
68489;BME280;55481;48.764;8.936;2023-01-25T15:55:50;97850;;;0.9;84
68489;BME280;55481;48.764;8.936;2023-01-25T15:58:28;97840;;;1;84
68489;BME280;55481;48.764;8.936;2023-01-25T16:03:21;97840;;;1;84
68489;BME280;55481;48.764;8.936;2023-01-25T16:08:29;97840;;;0.9;84
68489;BME280;55481;48.764;8.936;2023-01-25T16:10:59;97840;;;0.9;84
68489;BME280;55481;48.764;8.936;2023-01-25T16:13:29;97840;;;1;84
68489;BME280;55481;48.764;8.936;2023-01-25T16:18:23;97840;;;1;84
68489;BME280;55481;48.764;8.936;2023-01-25T16:20:54;97830;;;0.9;84
68489;BME280;55481;48.764;8.936;2023-01-25T16:23:32;97830;;;0.9;84
68489;BME280;55481;48.764;8.936;2023-01-25T16:31:04;97820;;;0.7;84.5
68489;BME280;55481;48.764;8.936;2023-01-25T16:33:34;97820;;;0.7;84.5
68489;BME280;55481;48.764;8.936;2023-01-25T16:38:28;97830;;;0.8;84.5
68489;BME280;55481;48.764;8.936;2023-01-25T16:40:59;97820;;;0.9;84.5
68489;BME280;55481;48.764;8.936;2023-01-25T16:43:30;97820;;;0.9;84
68489;BME280;55481;48.764;8.936;2023-01-25T16:50:55;97820;;;0.7;84.5
68489;BME280;55481;48.764;8.936;2023-01-25T16:53:26;97820;;;0.8;84.5
68489;BME280;55481;48.764;8.936;2023-01-25T16:55:58;97820;;;0.8;84
68489;BME280;55481;48.764;8.936;2023-01-25T16:58:28;97820;;;0.7;84.5
68489;BME280;55481;48.764;8.936;2023-01-25T17:00:58;97820;;;0.7;84.5
68489;BME280;55481;48.764;8.936;2023-01-25T17:03:32;97820;;;0.6;84.5
68489;BME280;55481;48.764;8.936;2023-01-25T17:06:00;97820;;;0.7;84.5
68489;BME280;55481;48.764;8.936;2023-01-25T17:08:31;97810;;;0.6;84
68489;BME280;55481;48.764;8.936;2023-01-25T17:11:02;97810;;;0.6;84
68489;BME280;55481;48.764;8.936;2023-01-25T17:26:13;97800;;;0.6;84
68489;BME280;55481;48.764;8.936;2023-01-25T17:28:44;97800;;;0.6;84
68489;BME280;55481;48.764;8.936;2023-01-25T17:33:48;97790;;;0.6;84
68489;BME280;55481;48.764;8.936;2023-01-25T17:36:09;97800;;;0.4;84.5
68489;BME280;55481;48.764;8.936;2023-01-25T17:38:40;97790;;;0.5;84.5
68489;BME280;55481;48.764;8.936;2023-01-25T17:41:12;97790;;;0.6;84.5
68489;BME280;55481;48.764;8.936;2023-01-25T17:43:41;97790;;;0.6;84.5
68489;BME280;55481;48.764;8.936;2023-01-25T17:46:13;97790;;;0.5;84.5
68489;BME280;55481;48.764;8.936;2023-01-25T17:53:44;97780;;;0.6;84.5
68489;BME280;55481;48.764;8.936;2023-01-25T17:58:52;97770;;;0.6;84.5
68489;BME280;55481;48.764;8.936;2023-01-25T18:01:24;97770;;;0.6;84
68489;BME280;55481;48.764;8.936;2023-01-25T18:06:19;97770;;;0.5;84.5
68489;BME280;55481;48.764;8.936;2023-01-25T18:08:49;97760;;;0.5;84.5
68489;BME280;55481;48.764;8.936;2023-01-25T18:11:21;97760;;;0.7;84.5
68489;BME280;55481;48.764;8.936;2023-01-25T18:14:04;97760;;;0.8;84
68489;BME280;55481;48.764;8.936;2023-01-25T18:16:34;97760;;;0.8;84
68489;BME280;55481;48.764;8.936;2023-01-25T18:24:21;97750;;;0.8;84
68489;BME280;55481;48.764;8.936;2023-01-25T18:29:43;97740;;;0.8;84
68489;BME280;55481;48.764;8.936;2023-01-25T18:34:09;97740;;;0.6;84
68489;BME280;55481;48.764;8.936;2023-01-25T18:36:39;97740;;;0.6;84
68489;BME280;55481;48.764;8.936;2023-01-25T18:39:09;97730;;;0.5;84
68489;BME280;55481;48.764;8.936;2023-01-25T18:44:04;97720;;;0.7;84
68489;BME280;55481;48.764;8.936;2023-01-25T18:46:34;97720;;;0.7;84
68489;BME280;55481;48.764;8.936;2023-01-25T18:49:12;97720;;;0.6;84
68489;BME280;55481;48.764;8.936;2023-01-25T18:51:43;97720;;;0.7;84
68489;BME280;55481;48.764;8.936;2023-01-25T18:59:28;97720;;;0.7;84
68489;BME280;55481;48.764;8.936;2023-01-25T19:01:45;97720;;;0.7;84
68489;BME280;55481;48.764;8.936;2023-01-25T19:04:15;97720;;;0.6;84
68489;BME280;55481;48.764;8.936;2023-01-25T19:06:40;97720;;;0.5;84
68489;BME280;55481;48.764;8.936;2023-01-25T19:09:11;97710;;;0.5;84.5
68489;BME280;55481;48.764;8.936;2023-01-25T19:14:06;97710;;;0.6;84.5
68489;BME280;55481;48.764;8.936;2023-01-25T19:21:38;97710;;;0.6;84
68489;BME280;55481;48.764;8.936;2023-01-25T19:24:11;97700;;;0.7;84
68489;BME280;55481;48.764;8.936;2023-01-25T19:26:40;97700;;;0.7;84
68489;BME280;55481;48.764;8.936;2023-01-25T19:29:11;97700;;;0.6;84
68489;BME280;55481;48.764;8.936;2023-01-25T19:31:41;97700;;;0.6;84
68489;BME280;55481;48.764;8.936;2023-01-25T19:36:49;97700;;;0.5;84.5
68489;BME280;55481;48.764;8.936;2023-01-25T19:39:20;97700;;;0.1;84.5
68489;BME280;55481;48.764;8.936;2023-01-25T19:41:51;97700;;;0.3;84.5
68489;BME280;55481;48.764;8.936;2023-01-25T19:49:16;97690;;;0.2;84.5
68489;BME280;55481;48.764;8.936;2023-01-25T19:51:47;97690;;;0.3;84.5
68489;BME280;55481;48.764;8.936;2023-01-25T19:54:18;97680;;;0.2;84
68489;BME280;55481;48.764;8.936;2023-01-25T19:56:48;97680;;;0.2;84.5
68489;BME280;55481;48.764;8.936;2023-01-25T20:09:22;97670;;;0.3;84.5
68489;BME280;55481;48.764;8.936;2023-01-25T20:11:54;97670;;;0.4;84.5
68489;BME280;55481;48.764;8.936;2023-01-25T20:14:37;97670;;;0.4;84
68489;BME280;55481;48.764;8.936;2023-01-25T20:17:08;97670;;;0.4;84.5
68489;BME280;55481;48.764;8.936;2023-01-25T20:22:03;97670;;;0.3;84.5
68489;BME280;55481;48.764;8.936;2023-01-25T20:24:32;97670;;;0.1;84.5
68489;BME280;55481;48.764;8.936;2023-01-25T20:27:03;97660;;;0.1;84.5
68489;BME280;55481;48.764;8.936;2023-01-25T20:29:40;97650;;;0;85
68489;BME280;55481;48.764;8.936;2023-01-25T20:32:11;97650;;;0;85
68489;BME280;55481;48.764;8.936;2023-01-25T20:34:48;97650;;;0.1;85
68489;BME280;55481;48.764;8.936;2023-01-25T20:37:19;97640;;;0.1;85